sensor_id;sensor_type;location;lat;lon;timestamp;P1;durP1;ratioP1;P2;durP2;ratioP2
9884;SDS011;4981;50.966;4.842;2022-12-20T00:01:33;3.33;;;1.47;;
9884;SDS011;4981;50.966;4.842;2022-12-20T00:04:02;2.80;;;1.50;;
9884;SDS011;4981;50.966;4.842;2022-12-20T00:06:30;2.97;;;1.50;;
9884;SDS011;4981;50.966;4.842;2022-12-20T00:09:00;2.90;;;1.40;;
9884;SDS011;4981;50.966;4.842;2022-12-20T00:11:29;4.37;;;1.87;;
9884;SDS011;4981;50.966;4.842;2022-12-20T00:13:57;2.00;;;1.80;;
9884;SDS011;4981;50.966;4.842;2022-12-20T00:16:26;2.23;;;1.33;;
9884;SDS011;4981;50.966;4.842;2022-12-20T00:18:54;3.00;;;1.40;;
9884;SDS011;4981;50.966;4.842;2022-12-20T00:21:24;2.83;;;1.70;;
9884;SDS011;4981;50.966;4.842;2022-12-20T00:23:52;4.30;;;1.70;;
9884;SDS011;4981;50.966;4.842;2022-12-20T00:26:20;3.90;;;1.80;;
9884;SDS011;4981;50.966;4.842;2022-12-20T00:28:49;5.13;;;1.97;;
9884;SDS011;4981;50.966;4.842;2022-12-20T00:31:17;2.40;;;1.47;;
9884;SDS011;4981;50.966;4.842;2022-12-20T00:33:45;2.77;;;1.57;;
9884;SDS011;4981;50.966;4.842;2022-12-20T00:36:14;5.43;;;2.03;;
9884;SDS011;4981;50.966;4.842;2022-12-20T00:38:45;2.70;;;1.63;;
9884;SDS011;4981;50.966;4.842;2022-12-20T00:41:13;5.50;;;1.87;;
9884;SDS011;4981;50.966;4.842;2022-12-20T00:43:41;4.57;;;2.03;;
9884;SDS011;4981;50.966;4.842;2022-12-20T00:46:09;2.27;;;1.47;;
9884;SDS011;4981;50.966;4.842;2022-12-20T00:48:37;4.40;;;1.93;;
9884;SDS011;4981;50.966;4.842;2022-12-20T00:51:05;3.10;;;1.77;;
9884;SDS011;4981;50.966;4.842;2022-12-20T00:53:34;2.63;;;1.70;;
9884;SDS011;4981;50.966;4.842;2022-12-20T00:56:03;3.93;;;1.70;;
9884;SDS011;4981;50.966;4.842;2022-12-20T00:58:32;3.67;;;1.90;;
9884;SDS011;4981;50.966;4.842;2022-12-20T01:00:59;5.37;;;1.80;;
9884;SDS011;4981;50.966;4.842;2022-12-20T01:03:27;2.57;;;1.70;;
9884;SDS011;4981;50.966;4.842;2022-12-20T01:05:54;3.57;;;1.67;;
9884;SDS011;4981;50.966;4.842;2022-12-20T01:08:23;6.20;;;2.10;;
9884;SDS011;4981;50.966;4.842;2022-12-20T01:10:57;3.90;;;1.50;;
9884;SDS011;4981;50.966;4.842;2022-12-20T01:13:27;3.37;;;1.57;;
9884;SDS011;4981;50.966;4.842;2022-12-20T01:15:54;2.47;;;1.43;;
9884;SDS011;4981;50.966;4.842;2022-12-20T01:18:22;3.83;;;1.57;;
9884;SDS011;4981;50.966;4.842;2022-12-20T01:20:49;4.33;;;1.50;;
9884;SDS011;4981;50.966;4.842;2022-12-20T01:23:26;5.07;;;1.90;;
9884;SDS011;4981;50.966;4.842;2022-12-20T01:25:53;3.27;;;1.70;;
9884;SDS011;4981;50.966;4.842;2022-12-20T01:28:22;5.07;;;1.73;;
9884;SDS011;4981;50.966;4.842;2022-12-20T01:30:50;3.50;;;1.97;;
9884;SDS011;4981;50.966;4.842;2022-12-20T01:33:17;1.90;;;1.53;;
9884;SDS011;4981;50.966;4.842;2022-12-20T01:35:53;2.50;;;1.60;;
9884;SDS011;4981;50.966;4.842;2022-12-20T01:38:20;3.23;;;1.60;;
9884;SDS011;4981;50.966;4.842;2022-12-20T01:40:47;4.43;;;1.53;;
9884;SDS011;4981;50.966;4.842;2022-12-20T01:43:15;3.00;;;1.77;;
9884;SDS011;4981;50.966;4.842;2022-12-20T01:45:44;3.17;;;1.57;;
9884;SDS011;4981;50.966;4.842;2022-12-20T01:48:14;5.90;;;1.60;;
9884;SDS011;4981;50.966;4.842;2022-12-20T01:50:45;5.50;;;1.60;;
9884;SDS011;4981;50.966;4.842;2022-12-20T01:53:13;2.13;;;1.57;;
9884;SDS011;4981;50.966;4.842;2022-12-20T01:55:41;2.40;;;1.40;;
9884;SDS011;4981;50.966;4.842;2022-12-20T01:58:12;2.73;;;1.90;;
9884;SDS011;4981;50.966;4.842;2022-12-20T02:00:41;2.73;;;1.90;;
9884;SDS011;4981;50.966;4.842;2022-12-20T02:03:09;3.10;;;1.60;;
9884;SDS011;4981;50.966;4.842;2022-12-20T02:05:41;1.57;;;1.47;;
9884;SDS011;4981;50.966;4.842;2022-12-20T02:08:11;3.60;;;1.37;;
9884;SDS011;4981;50.966;4.842;2022-12-20T02:10:46;2.63;;;1.53;;
9884;SDS011;4981;50.966;4.842;2022-12-20T02:13:28;3.67;;;1.97;;
9884;SDS011;4981;50.966;4.842;2022-12-20T02:16:02;2.53;;;1.30;;
9884;SDS011;4981;50.966;4.842;2022-12-20T02:18:31;2.10;;;1.47;;
9884;SDS011;4981;50.966;4.842;2022-12-20T02:24:02;3.17;;;1.97;;
9884;SDS011;4981;50.966;4.842;2022-12-20T02:32:47;4.30;;;1.40;;
9884;SDS011;4981;50.966;4.842;2022-12-20T02:35:19;3.47;;;1.70;;
9884;SDS011;4981;50.966;4.842;2022-12-20T02:37:48;3.33;;;1.90;;
9884;SDS011;4981;50.966;4.842;2022-12-20T02:40:18;2.10;;;1.50;;
9884;SDS011;4981;50.966;4.842;2022-12-20T02:42:50;2.10;;;1.40;;
9884;SDS011;4981;50.966;4.842;2022-12-20T02:45:24;2.53;;;1.40;;
9884;SDS011;4981;50.966;4.842;2022-12-20T02:47:58;1.97;;;1.50;;
9884;SDS011;4981;50.966;4.842;2022-12-20T02:50:30;4.27;;;1.80;;
9884;SDS011;4981;50.966;4.842;2022-12-20T02:53:02;2.97;;;1.53;;
9884;SDS011;4981;50.966;4.842;2022-12-20T02:55:32;2.13;;;1.60;;
9884;SDS011;4981;50.966;4.842;2022-12-20T02:58:08;2.47;;;1.23;;
9884;SDS011;4981;50.966;4.842;2022-12-20T03:00:45;3.67;;;1.60;;
9884;SDS011;4981;50.966;4.842;2022-12-20T03:03:15;2.57;;;1.30;;
9884;SDS011;4981;50.966;4.842;2022-12-20T03:05:49;4.73;;;1.40;;
9884;SDS011;4981;50.966;4.842;2022-12-20T03:08:18;1.90;;;1.50;;
9884;SDS011;4981;50.966;4.842;2022-12-20T03:10:45;3.10;;;1.80;;
9884;SDS011;4981;50.966;4.842;2022-12-20T03:13:13;2.03;;;1.37;;
9884;SDS011;4981;50.966;4.842;2022-12-20T03:15:40;2.50;;;1.40;;
9884;SDS011;4981;50.966;4.842;2022-12-20T03:18:08;2.23;;;1.53;;
9884;SDS011;4981;50.966;4.842;2022-12-20T03:20:35;2.77;;;1.33;;
9884;SDS011;4981;50.966;4.842;2022-12-20T03:23:02;3.10;;;1.40;;
9884;SDS011;4981;50.966;4.842;2022-12-20T03:25:30;2.07;;;1.47;;
9884;SDS011;4981;50.966;4.842;2022-12-20T03:27:57;2.70;;;1.40;;
9884;SDS011;4981;50.966;4.842;2022-12-20T03:30:24;3.70;;;1.57;;
9884;SDS011;4981;50.966;4.842;2022-12-20T03:32:50;2.50;;;1.30;;
9884;SDS011;4981;50.966;4.842;2022-12-20T03:35:19;1.70;;;1.03;;
9884;SDS011;4981;50.966;4.842;2022-12-20T03:37:46;4.60;;;1.33;;
9884;SDS011;4981;50.966;4.842;2022-12-20T03:40:13;2.60;;;1.37;;
9884;SDS011;4981;50.966;4.842;2022-12-20T03:42:41;2.27;;;1.67;;
9884;SDS011;4981;50.966;4.842;2022-12-20T03:45:08;3.80;;;1.60;;
9884;SDS011;4981;50.966;4.842;2022-12-20T03:47:36;3.67;;;1.47;;
9884;SDS011;4981;50.966;4.842;2022-12-20T03:50:03;4.00;;;1.80;;
9884;SDS011;4981;50.966;4.842;2022-12-20T03:52:32;1.70;;;1.50;;
9884;SDS011;4981;50.966;4.842;2022-12-20T03:54:59;2.40;;;1.40;;
9884;SDS011;4981;50.966;4.842;2022-12-20T03:57:27;4.70;;;1.50;;
9884;SDS011;4981;50.966;4.842;2022-12-20T03:59:54;3.17;;;1.60;;
9884;SDS011;4981;50.966;4.842;2022-12-20T04:02:21;2.60;;;1.60;;
9884;SDS011;4981;50.966;4.842;2022-12-20T04:04:48;4.73;;;1.70;;
9884;SDS011;4981;50.966;4.842;2022-12-20T04:07:15;2.00;;;1.40;;
9884;SDS011;4981;50.966;4.842;2022-12-20T04:09:44;5.37;;;1.50;;
9884;SDS011;4981;50.966;4.842;2022-12-20T04:12:11;3.40;;;1.40;;
9884;SDS011;4981;50.966;4.842;2022-12-20T04:14:38;3.13;;;1.33;;
9884;SDS011;4981;50.966;4.842;2022-12-20T04:17:05;3.83;;;1.67;;
9884;SDS011;4981;50.966;4.842;2022-12-20T04:19:32;5.03;;;1.47;;
9884;SDS011;4981;50.966;4.842;2022-12-20T04:21:59;2.13;;;1.67;;
9884;SDS011;4981;50.966;4.842;2022-12-20T04:24:26;2.97;;;1.23;;
9884;SDS011;4981;50.966;4.842;2022-12-20T04:26:55;3.63;;;1.50;;
9884;SDS011;4981;50.966;4.842;2022-12-20T04:29:21;7.13;;;1.73;;
9884;SDS011;4981;50.966;4.842;2022-12-20T04:31:48;2.80;;;1.37;;
9884;SDS011;4981;50.966;4.842;2022-12-20T04:34:15;2.17;;;1.40;;
9884;SDS011;4981;50.966;4.842;2022-12-20T04:36:42;4.10;;;1.50;;
9884;SDS011;4981;50.966;4.842;2022-12-20T04:39:09;4.17;;;1.50;;
9884;SDS011;4981;50.966;4.842;2022-12-20T04:41:36;4.20;;;1.53;;
9884;SDS011;4981;50.966;4.842;2022-12-20T04:44:05;2.83;;;1.43;;
9884;SDS011;4981;50.966;4.842;2022-12-20T04:46:32;1.70;;;1.30;;
9884;SDS011;4981;50.966;4.842;2022-12-20T04:48:59;2.40;;;1.60;;
9884;SDS011;4981;50.966;4.842;2022-12-20T04:51:26;3.47;;;1.40;;
9884;SDS011;4981;50.966;4.842;2022-12-20T04:53:53;3.10;;;1.50;;
9884;SDS011;4981;50.966;4.842;2022-12-20T04:56:20;1.77;;;1.33;;
9884;SDS011;4981;50.966;4.842;2022-12-20T04:58:49;2.07;;;1.30;;
9884;SDS011;4981;50.966;4.842;2022-12-20T05:01:19;3.30;;;1.20;;
9884;SDS011;4981;50.966;4.842;2022-12-20T05:03:46;2.27;;;1.30;;
9884;SDS011;4981;50.966;4.842;2022-12-20T05:06:14;4.47;;;1.40;;
9884;SDS011;4981;50.966;4.842;2022-12-20T05:08:42;2.60;;;1.20;;
9884;SDS011;4981;50.966;4.842;2022-12-20T05:11:10;1.87;;;1.57;;
9884;SDS011;4981;50.966;4.842;2022-12-20T05:13:37;3.00;;;1.57;;
9884;SDS011;4981;50.966;4.842;2022-12-20T05:16:04;3.57;;;1.80;;
9884;SDS011;4981;50.966;4.842;2022-12-20T05:18:33;2.57;;;1.37;;
9884;SDS011;4981;50.966;4.842;2022-12-20T05:21:01;3.23;;;1.70;;
9884;SDS011;4981;50.966;4.842;2022-12-20T05:23:46;2.70;;;1.60;;
9884;SDS011;4981;50.966;4.842;2022-12-20T05:26:32;3.17;;;1.40;;
9884;SDS011;4981;50.966;4.842;2022-12-20T05:29:01;4.77;;;1.70;;
9884;SDS011;4981;50.966;4.842;2022-12-20T05:31:29;4.80;;;1.63;;
9884;SDS011;4981;50.966;4.842;2022-12-20T05:33:57;3.17;;;1.33;;
9884;SDS011;4981;50.966;4.842;2022-12-20T05:36:25;4.57;;;1.70;;
9884;SDS011;4981;50.966;4.842;2022-12-20T05:38:52;3.13;;;1.77;;
9884;SDS011;4981;50.966;4.842;2022-12-20T05:41:19;3.20;;;2.00;;
9884;SDS011;4981;50.966;4.842;2022-12-20T05:43:45;2.67;;;2.00;;
9884;SDS011;4981;50.966;4.842;2022-12-20T05:46:12;1.80;;;1.43;;
9884;SDS011;4981;50.966;4.842;2022-12-20T05:48:39;2.80;;;1.50;;
9884;SDS011;4981;50.966;4.842;2022-12-20T05:51:08;1.90;;;1.30;;
9884;SDS011;4981;50.966;4.842;2022-12-20T05:53:35;2.40;;;1.33;;
9884;SDS011;4981;50.966;4.842;2022-12-20T05:56:01;3.03;;;2.23;;
9884;SDS011;4981;50.966;4.842;2022-12-20T05:58:29;2.33;;;1.50;;
9884;SDS011;4981;50.966;4.842;2022-12-20T06:00:55;2.87;;;1.53;;
9884;SDS011;4981;50.966;4.842;2022-12-20T06:03:25;3.70;;;1.20;;
9884;SDS011;4981;50.966;4.842;2022-12-20T06:05:52;5.03;;;1.23;;
9884;SDS011;4981;50.966;4.842;2022-12-20T06:08:20;3.23;;;1.30;;
9884;SDS011;4981;50.966;4.842;2022-12-20T06:10:48;3.97;;;1.23;;
9884;SDS011;4981;50.966;4.842;2022-12-20T06:13:16;2.97;;;1.23;;
9884;SDS011;4981;50.966;4.842;2022-12-20T06:15:43;3.30;;;1.10;;
9884;SDS011;4981;50.966;4.842;2022-12-20T06:18:10;6.03;;;1.37;;
9884;SDS011;4981;50.966;4.842;2022-12-20T06:20:37;2.57;;;1.33;;
9884;SDS011;4981;50.966;4.842;2022-12-20T06:23:05;2.33;;;1.20;;
9884;SDS011;4981;50.966;4.842;2022-12-20T06:25:35;3.13;;;1.40;;
9884;SDS011;4981;50.966;4.842;2022-12-20T06:28:03;3.87;;;1.30;;
9884;SDS011;4981;50.966;4.842;2022-12-20T06:30:32;1.93;;;1.30;;
9884;SDS011;4981;50.966;4.842;2022-12-20T06:32:59;1.77;;;1.27;;
9884;SDS011;4981;50.966;4.842;2022-12-20T06:35:27;4.10;;;1.60;;
9884;SDS011;4981;50.966;4.842;2022-12-20T06:37:54;2.63;;;1.23;;
9884;SDS011;4981;50.966;4.842;2022-12-20T06:40:21;3.97;;;1.37;;
9884;SDS011;4981;50.966;4.842;2022-12-20T06:42:49;8.60;;;4.80;;
9884;SDS011;4981;50.966;4.842;2022-12-20T06:45:16;4.13;;;1.97;;
9884;SDS011;4981;50.966;4.842;2022-12-20T06:47:43;2.63;;;1.20;;
9884;SDS011;4981;50.966;4.842;2022-12-20T06:50:10;2.63;;;1.93;;
9884;SDS011;4981;50.966;4.842;2022-12-20T06:52:37;2.87;;;1.70;;
9884;SDS011;4981;50.966;4.842;2022-12-20T06:55:04;2.87;;;1.57;;
9884;SDS011;4981;50.966;4.842;2022-12-20T06:57:32;2.23;;;1.27;;
9884;SDS011;4981;50.966;4.842;2022-12-20T07:00:00;4.47;;;1.60;;
9884;SDS011;4981;50.966;4.842;2022-12-20T07:02:27;1.50;;;1.27;;
9884;SDS011;4981;50.966;4.842;2022-12-20T07:04:54;3.00;;;1.40;;
9884;SDS011;4981;50.966;4.842;2022-12-20T07:07:21;5.43;;;1.73;;
9884;SDS011;4981;50.966;4.842;2022-12-20T07:09:48;3.93;;;1.43;;
9884;SDS011;4981;50.966;4.842;2022-12-20T07:12:15;3.10;;;1.40;;
9884;SDS011;4981;50.966;4.842;2022-12-20T07:14:42;1.80;;;1.30;;
9884;SDS011;4981;50.966;4.842;2022-12-20T07:17:10;1.00;;;0.90;;
9884;SDS011;4981;50.966;4.842;2022-12-20T07:19:37;2.93;;;1.10;;
9884;SDS011;4981;50.966;4.842;2022-12-20T07:22:04;2.03;;;1.33;;
9884;SDS011;4981;50.966;4.842;2022-12-20T07:24:32;2.57;;;1.20;;
9884;SDS011;4981;50.966;4.842;2022-12-20T07:26:59;3.33;;;1.20;;
9884;SDS011;4981;50.966;4.842;2022-12-20T07:29:26;3.27;;;1.47;;
9884;SDS011;4981;50.966;4.842;2022-12-20T07:31:54;3.00;;;1.47;;
9884;SDS011;4981;50.966;4.842;2022-12-20T07:34:22;2.40;;;1.23;;
9884;SDS011;4981;50.966;4.842;2022-12-20T07:36:49;3.93;;;1.30;;
9884;SDS011;4981;50.966;4.842;2022-12-20T07:39:16;3.50;;;1.30;;
9884;SDS011;4981;50.966;4.842;2022-12-20T07:41:44;1.87;;;1.07;;
9884;SDS011;4981;50.966;4.842;2022-12-20T07:44:11;7.07;;;2.57;;
9884;SDS011;4981;50.966;4.842;2022-12-20T07:46:38;5.27;;;1.70;;
9884;SDS011;4981;50.966;4.842;2022-12-20T07:49:05;2.17;;;1.40;;
9884;SDS011;4981;50.966;4.842;2022-12-20T07:51:35;3.27;;;1.13;;
9884;SDS011;4981;50.966;4.842;2022-12-20T07:54:05;3.60;;;1.30;;
9884;SDS011;4981;50.966;4.842;2022-12-20T07:56:36;5.70;;;1.57;;
9884;SDS011;4981;50.966;4.842;2022-12-20T07:59:08;3.93;;;1.30;;
9884;SDS011;4981;50.966;4.842;2022-12-20T08:01:37;6.37;;;3.77;;
9884;SDS011;4981;50.966;4.842;2022-12-20T08:04:06;3.47;;;1.50;;
9884;SDS011;4981;50.966;4.842;2022-12-20T08:06:39;4.10;;;1.23;;
9884;SDS011;4981;50.966;4.842;2022-12-20T08:09:07;8.70;;;1.90;;
9884;SDS011;4981;50.966;4.842;2022-12-20T08:11:37;8.53;;;1.77;;
9884;SDS011;4981;50.966;4.842;2022-12-20T08:14:08;4.90;;;1.40;;
9884;SDS011;4981;50.966;4.842;2022-12-20T08:16:36;3.70;;;1.70;;
9884;SDS011;4981;50.966;4.842;2022-12-20T08:19:03;10.70;;;1.93;;
9884;SDS011;4981;50.966;4.842;2022-12-20T08:21:30;4.33;;;1.57;;
9884;SDS011;4981;50.966;4.842;2022-12-20T08:23:58;8.87;;;2.37;;
9884;SDS011;4981;50.966;4.842;2022-12-20T08:26:25;6.43;;;1.97;;
9884;SDS011;4981;50.966;4.842;2022-12-20T08:28:53;8.90;;;2.00;;
9884;SDS011;4981;50.966;4.842;2022-12-20T08:31:20;5.60;;;1.60;;
9884;SDS011;4981;50.966;4.842;2022-12-20T08:33:47;9.53;;;1.87;;
9884;SDS011;4981;50.966;4.842;2022-12-20T08:36:14;11.57;;;2.10;;
9884;SDS011;4981;50.966;4.842;2022-12-20T08:38:41;5.40;;;2.03;;
9884;SDS011;4981;50.966;4.842;2022-12-20T08:41:10;4.53;;;1.60;;
9884;SDS011;4981;50.966;4.842;2022-12-20T08:43:38;9.40;;;1.87;;
9884;SDS011;4981;50.966;4.842;2022-12-20T08:46:06;4.03;;;1.30;;
9884;SDS011;4981;50.966;4.842;2022-12-20T08:48:34;3.37;;;1.43;;
9884;SDS011;4981;50.966;4.842;2022-12-20T08:51:02;6.63;;;1.30;;
9884;SDS011;4981;50.966;4.842;2022-12-20T08:53:31;5.57;;;1.47;;
9884;SDS011;4981;50.966;4.842;2022-12-20T08:56:03;3.73;;;1.50;;
9884;SDS011;4981;50.966;4.842;2022-12-20T08:58:33;4.37;;;1.50;;
9884;SDS011;4981;50.966;4.842;2022-12-20T09:01:01;6.00;;;1.40;;
9884;SDS011;4981;50.966;4.842;2022-12-20T09:03:30;5.93;;;1.87;;
9884;SDS011;4981;50.966;4.842;2022-12-20T09:05:57;6.27;;;1.80;;
9884;SDS011;4981;50.966;4.842;2022-12-20T09:08:24;4.63;;;1.50;;
9884;SDS011;4981;50.966;4.842;2022-12-20T09:10:52;2.70;;;1.50;;
9884;SDS011;4981;50.966;4.842;2022-12-20T09:13:19;7.27;;;2.23;;
9884;SDS011;4981;50.966;4.842;2022-12-20T09:15:48;3.47;;;1.70;;
9884;SDS011;4981;50.966;4.842;2022-12-20T09:18:15;8.03;;;3.10;;
9884;SDS011;4981;50.966;4.842;2022-12-20T09:20:42;7.30;;;2.10;;
9884;SDS011;4981;50.966;4.842;2022-12-20T09:23:10;5.23;;;2.10;;
9884;SDS011;4981;50.966;4.842;2022-12-20T09:25:37;4.70;;;2.20;;
9884;SDS011;4981;50.966;4.842;2022-12-20T09:28:04;5.27;;;1.90;;
9884;SDS011;4981;50.966;4.842;2022-12-20T09:30:31;5.27;;;1.60;;
9884;SDS011;4981;50.966;4.842;2022-12-20T09:33:00;3.07;;;1.87;;
9884;SDS011;4981;50.966;4.842;2022-12-20T09:35:27;6.80;;;1.70;;
9884;SDS011;4981;50.966;4.842;2022-12-20T09:37:54;5.37;;;2.03;;
9884;SDS011;4981;50.966;4.842;2022-12-20T09:40:22;3.03;;;1.50;;
9884;SDS011;4981;50.966;4.842;2022-12-20T09:42:52;3.83;;;1.47;;
9884;SDS011;4981;50.966;4.842;2022-12-20T09:45:21;5.07;;;1.47;;
9884;SDS011;4981;50.966;4.842;2022-12-20T09:47:51;4.90;;;1.60;;
9884;SDS011;4981;50.966;4.842;2022-12-20T09:50:20;5.60;;;1.77;;
9884;SDS011;4981;50.966;4.842;2022-12-20T09:53:09;6.67;;;1.93;;
9884;SDS011;4981;50.966;4.842;2022-12-20T09:55:46;3.43;;;1.70;;
9884;SDS011;4981;50.966;4.842;2022-12-20T09:58:29;3.33;;;1.63;;
9884;SDS011;4981;50.966;4.842;2022-12-20T10:01:10;4.27;;;1.60;;
9884;SDS011;4981;50.966;4.842;2022-12-20T10:03:41;5.03;;;1.60;;
9884;SDS011;4981;50.966;4.842;2022-12-20T10:06:12;5.00;;;1.73;;
9884;SDS011;4981;50.966;4.842;2022-12-20T10:08:49;7.30;;;1.83;;
9884;SDS011;4981;50.966;4.842;2022-12-20T10:11:27;6.07;;;1.70;;
9884;SDS011;4981;50.966;4.842;2022-12-20T10:14:15;7.07;;;2.03;;
9884;SDS011;4981;50.966;4.842;2022-12-20T10:16:55;2.90;;;1.50;;
9884;SDS011;4981;50.966;4.842;2022-12-20T10:19:35;6.70;;;2.23;;
9884;SDS011;4981;50.966;4.842;2022-12-20T10:22:21;10.50;;;1.97;;
9884;SDS011;4981;50.966;4.842;2022-12-20T10:24:55;9.33;;;1.77;;
9884;SDS011;4981;50.966;4.842;2022-12-20T10:27:27;5.93;;;1.60;;
9884;SDS011;4981;50.966;4.842;2022-12-20T10:29:54;5.27;;;2.07;;
9884;SDS011;4981;50.966;4.842;2022-12-20T10:32:22;6.57;;;2.10;;
9884;SDS011;4981;50.966;4.842;2022-12-20T10:34:51;5.53;;;2.43;;
9884;SDS011;4981;50.966;4.842;2022-12-20T10:37:23;5.97;;;2.10;;
9884;SDS011;4981;50.966;4.842;2022-12-20T10:39:50;5.53;;;2.10;;
9884;SDS011;4981;50.966;4.842;2022-12-20T10:42:22;6.63;;;2.67;;
9884;SDS011;4981;50.966;4.842;2022-12-20T10:44:51;5.60;;;1.77;;
9884;SDS011;4981;50.966;4.842;2022-12-20T10:47:23;5.43;;;2.10;;
9884;SDS011;4981;50.966;4.842;2022-12-20T10:50:06;4.80;;;1.60;;
9884;SDS011;4981;50.966;4.842;2022-12-20T10:52:43;7.83;;;1.90;;
9884;SDS011;4981;50.966;4.842;2022-12-20T10:58:05;5.63;;;2.17;;
9884;SDS011;4981;50.966;4.842;2022-12-20T11:00:39;3.97;;;1.57;;
9884;SDS011;4981;50.966;4.842;2022-12-20T11:03:09;6.47;;;1.70;;
9884;SDS011;4981;50.966;4.842;2022-12-20T11:05:39;2.33;;;1.63;;
9884;SDS011;4981;50.966;4.842;2022-12-20T11:08:20;5.40;;;1.80;;
9884;SDS011;4981;50.966;4.842;2022-12-20T11:10:51;6.03;;;2.50;;
9884;SDS011;4981;50.966;4.842;2022-12-20T11:13:38;4.33;;;1.90;;
9884;SDS011;4981;50.966;4.842;2022-12-20T11:16:09;5.37;;;1.87;;
9884;SDS011;4981;50.966;4.842;2022-12-20T11:18:50;3.13;;;2.07;;
9884;SDS011;4981;50.966;4.842;2022-12-20T11:21:26;3.10;;;1.90;;
9884;SDS011;4981;50.966;4.842;2022-12-20T11:24:06;6.03;;;1.97;;
9884;SDS011;4981;50.966;4.842;2022-12-20T11:26:43;8.17;;;2.30;;
9884;SDS011;4981;50.966;4.842;2022-12-20T11:29:27;5.57;;;2.43;;
9884;SDS011;4981;50.966;4.842;2022-12-20T11:32:09;5.00;;;2.20;;
9884;SDS011;4981;50.966;4.842;2022-12-20T11:34:48;4.60;;;2.00;;
9884;SDS011;4981;50.966;4.842;2022-12-20T11:37:24;6.30;;;2.17;;
9884;SDS011;4981;50.966;4.842;2022-12-20T11:40:02;5.77;;;2.60;;
9884;SDS011;4981;50.966;4.842;2022-12-20T11:42:45;9.10;;;3.30;;
9884;SDS011;4981;50.966;4.842;2022-12-20T11:45:22;3.30;;;1.93;;
9884;SDS011;4981;50.966;4.842;2022-12-20T11:48:03;5.50;;;2.67;;
9884;SDS011;4981;50.966;4.842;2022-12-20T11:50:44;7.40;;;2.50;;
9884;SDS011;4981;50.966;4.842;2022-12-20T11:53:22;3.93;;;2.57;;
9884;SDS011;4981;50.966;4.842;2022-12-20T11:55:55;4.60;;;2.77;;
9884;SDS011;4981;50.966;4.842;2022-12-20T11:58:28;6.07;;;2.30;;
9884;SDS011;4981;50.966;4.842;2022-12-20T12:01:00;8.97;;;2.80;;
9884;SDS011;4981;50.966;4.842;2022-12-20T12:03:38;4.20;;;2.20;;
9884;SDS011;4981;50.966;4.842;2022-12-20T12:06:09;9.83;;;2.57;;
9884;SDS011;4981;50.966;4.842;2022-12-20T12:08:46;5.40;;;2.47;;
9884;SDS011;4981;50.966;4.842;2022-12-20T12:11:19;9.40;;;4.80;;
9884;SDS011;4981;50.966;4.842;2022-12-20T12:13:51;7.20;;;2.83;;
9884;SDS011;4981;50.966;4.842;2022-12-20T12:16:19;5.73;;;2.43;;
9884;SDS011;4981;50.966;4.842;2022-12-20T12:18:53;4.70;;;2.47;;
9884;SDS011;4981;50.966;4.842;2022-12-20T12:21:23;8.13;;;2.47;;
9884;SDS011;4981;50.966;4.842;2022-12-20T12:23:55;7.53;;;2.70;;
9884;SDS011;4981;50.966;4.842;2022-12-20T12:26:32;7.03;;;2.80;;
9884;SDS011;4981;50.966;4.842;2022-12-20T12:29:00;7.57;;;3.07;;
9884;SDS011;4981;50.966;4.842;2022-12-20T12:31:31;7.40;;;3.10;;
9884;SDS011;4981;50.966;4.842;2022-12-20T12:34:04;7.10;;;2.20;;
9884;SDS011;4981;50.966;4.842;2022-12-20T12:36:43;6.23;;;2.27;;
9884;SDS011;4981;50.966;4.842;2022-12-20T12:39:39;5.90;;;2.43;;
9884;SDS011;4981;50.966;4.842;2022-12-20T12:43:00;12.87;;;2.50;;
9884;SDS011;4981;50.966;4.842;2022-12-20T12:45:47;9.93;;;2.87;;
9884;SDS011;4981;50.966;4.842;2022-12-20T12:48:17;13.07;;;3.80;;
9884;SDS011;4981;50.966;4.842;2022-12-20T12:50:47;8.97;;;3.80;;
9884;SDS011;4981;50.966;4.842;2022-12-20T12:53:16;7.30;;;2.50;;
9884;SDS011;4981;50.966;4.842;2022-12-20T12:55:47;7.17;;;2.80;;
9884;SDS011;4981;50.966;4.842;2022-12-20T13:01:07;10.10;;;2.87;;
9884;SDS011;4981;50.966;4.842;2022-12-20T13:03:45;5.07;;;2.20;;
9884;SDS011;4981;50.966;4.842;2022-12-20T13:09:46;8.60;;;3.63;;
9884;SDS011;4981;50.966;4.842;2022-12-20T13:18:27;6.40;;;2.47;;
9884;SDS011;4981;50.966;4.842;2022-12-20T13:38:57;7.00;;;3.17;;
9884;SDS011;4981;50.966;4.842;2022-12-20T13:41:30;9.47;;;3.43;;
9884;SDS011;4981;50.966;4.842;2022-12-20T13:44:07;6.63;;;2.50;;
9884;SDS011;4981;50.966;4.842;2022-12-20T13:46:50;13.93;;;3.73;;
9884;SDS011;4981;50.966;4.842;2022-12-20T13:49:23;5.87;;;3.23;;
9884;SDS011;4981;50.966;4.842;2022-12-20T13:52:16;18.30;;;10.03;;
9884;SDS011;4981;50.966;4.842;2022-12-20T13:54:51;9.10;;;4.47;;
9884;SDS011;4981;50.966;4.842;2022-12-20T13:57:23;8.10;;;3.50;;
9884;SDS011;4981;50.966;4.842;2022-12-20T13:59:55;13.90;;;7.67;;
9884;SDS011;4981;50.966;4.842;2022-12-20T14:02:25;7.03;;;3.20;;
9884;SDS011;4981;50.966;4.842;2022-12-20T14:04:58;6.57;;;3.43;;
9884;SDS011;4981;50.966;4.842;2022-12-20T14:07:27;7.83;;;2.97;;
9884;SDS011;4981;50.966;4.842;2022-12-20T14:09:57;7.23;;;3.60;;
9884;SDS011;4981;50.966;4.842;2022-12-20T14:12:25;12.43;;;4.10;;
9884;SDS011;4981;50.966;4.842;2022-12-20T14:14:53;7.80;;;3.20;;
9884;SDS011;4981;50.966;4.842;2022-12-20T14:17:24;7.83;;;4.57;;
9884;SDS011;4981;50.966;4.842;2022-12-20T14:20:11;13.70;;;8.10;;
9884;SDS011;4981;50.966;4.842;2022-12-20T14:22:41;10.03;;;5.30;;
9884;SDS011;4981;50.966;4.842;2022-12-20T14:25:16;6.40;;;3.77;;
9884;SDS011;4981;50.966;4.842;2022-12-20T14:27:48;9.87;;;4.23;;
9884;SDS011;4981;50.966;4.842;2022-12-20T14:30:24;7.53;;;2.73;;
9884;SDS011;4981;50.966;4.842;2022-12-20T14:32:53;7.43;;;4.73;;
9884;SDS011;4981;50.966;4.842;2022-12-20T14:35:23;5.27;;;2.70;;
9884;SDS011;4981;50.966;4.842;2022-12-20T14:37:51;7.97;;;4.47;;
9884;SDS011;4981;50.966;4.842;2022-12-20T14:40:20;9.20;;;3.33;;
9884;SDS011;4981;50.966;4.842;2022-12-20T14:42:47;5.63;;;2.80;;
9884;SDS011;4981;50.966;4.842;2022-12-20T14:45:16;9.40;;;2.93;;
9884;SDS011;4981;50.966;4.842;2022-12-20T14:47:49;6.80;;;3.30;;
9884;SDS011;4981;50.966;4.842;2022-12-20T14:50:23;9.40;;;3.30;;
9884;SDS011;4981;50.966;4.842;2022-12-20T14:52:59;5.00;;;3.00;;
9884;SDS011;4981;50.966;4.842;2022-12-20T14:55:31;7.40;;;3.40;;
9884;SDS011;4981;50.966;4.842;2022-12-20T14:58:04;27.53;;;11.27;;
9884;SDS011;4981;50.966;4.842;2022-12-20T15:00:54;12.60;;;2.97;;
9884;SDS011;4981;50.966;4.842;2022-12-20T15:03:23;4.93;;;3.13;;
9884;SDS011;4981;50.966;4.842;2022-12-20T15:05:52;7.70;;;3.30;;
9884;SDS011;4981;50.966;4.842;2022-12-20T15:08:21;10.53;;;4.13;;
9884;SDS011;4981;50.966;4.842;2022-12-20T15:10:55;7.77;;;2.93;;
9884;SDS011;4981;50.966;4.842;2022-12-20T15:13:28;10.40;;;4.00;;
9884;SDS011;4981;50.966;4.842;2022-12-20T15:15:58;9.57;;;3.23;;
9884;SDS011;4981;50.966;4.842;2022-12-20T15:18:26;6.67;;;3.33;;
9884;SDS011;4981;50.966;4.842;2022-12-20T15:20:58;8.90;;;3.17;;
9884;SDS011;4981;50.966;4.842;2022-12-20T15:23:28;6.33;;;3.53;;
9884;SDS011;4981;50.966;4.842;2022-12-20T15:25:56;6.93;;;3.60;;
9884;SDS011;4981;50.966;4.842;2022-12-20T15:28:24;7.90;;;2.80;;
9884;SDS011;4981;50.966;4.842;2022-12-20T15:30:51;6.80;;;3.30;;
9884;SDS011;4981;50.966;4.842;2022-12-20T15:33:20;9.23;;;3.50;;
9884;SDS011;4981;50.966;4.842;2022-12-20T15:35:48;10.87;;;3.30;;
9884;SDS011;4981;50.966;4.842;2022-12-20T15:38:18;7.63;;;2.60;;
9884;SDS011;4981;50.966;4.842;2022-12-20T15:40:48;7.27;;;3.27;;
9884;SDS011;4981;50.966;4.842;2022-12-20T15:43:18;6.60;;;2.93;;
9884;SDS011;4981;50.966;4.842;2022-12-20T15:45:47;8.70;;;3.43;;
9884;SDS011;4981;50.966;4.842;2022-12-20T15:48:17;8.60;;;3.20;;
9884;SDS011;4981;50.966;4.842;2022-12-20T15:50:49;9.47;;;3.33;;
9884;SDS011;4981;50.966;4.842;2022-12-20T15:53:21;9.97;;;3.90;;
9884;SDS011;4981;50.966;4.842;2022-12-20T15:55:51;6.37;;;3.50;;
9884;SDS011;4981;50.966;4.842;2022-12-20T15:58:20;15.87;;;5.53;;
9884;SDS011;4981;50.966;4.842;2022-12-20T16:00:48;8.63;;;4.30;;
9884;SDS011;4981;50.966;4.842;2022-12-20T16:03:16;14.00;;;4.20;;
9884;SDS011;4981;50.966;4.842;2022-12-20T16:05:45;12.60;;;4.53;;
9884;SDS011;4981;50.966;4.842;2022-12-20T16:08:13;7.87;;;3.70;;
9884;SDS011;4981;50.966;4.842;2022-12-20T16:10:44;7.00;;;3.60;;
9884;SDS011;4981;50.966;4.842;2022-12-20T16:13:15;9.63;;;4.40;;
9884;SDS011;4981;50.966;4.842;2022-12-20T16:15:47;8.00;;;4.33;;
9884;SDS011;4981;50.966;4.842;2022-12-20T16:18:14;8.43;;;4.07;;